Time;durP1;ratioP1;P1;durP2;ratioP2;P2;SDS_P1;SDS_P2;PMS_P1;PMS_P2;Temp;Humidity;BMP_temperature;BMP_pressure;BME280_temperature;BME280_humidity;BME280_pressure;Samples;Min_cycle;Max_cycle;Signal;HPM_P1;HPM_P2
2024/03/28 00:01:09;;;;;;;5.60;1.63;;;;;;;-144.51;100.00;69251.94;5107515;28;20052;-81
2024/03/28 00:04:04;;;;;;;4.28;1.98;;;;;;;-144.51;100.00;69251.94;5081713;28;20041;-82
2024/03/28 00:07:00;;;;;;;3.57;1.60;;;;;;;-144.51;100.00;69251.94;5086597;28;20040;-81
2024/03/28 00:09:54;;;;;;;3.50;1.33;;;;;;;-144.51;100.00;69251.94;5101432;28;20270;-82
2024/03/28 00:12:48;;;;;;;1.33;1.02;;;;;;;-144.51;100.00;69251.94;5101657;28;20044;-81
2024/03/28 00:15:41;;;;;;;1.60;1.10;;;;;;;-144.51;100.00;69251.94;5082127;28;20498;-80
2024/03/28 00:18:35;;;;;;;1.73;1.30;;;;;;;-144.51;100.00;69251.94;5101282;28;20127;-81
2024/03/28 00:21:27;;;;;;;2.10;1.00;;;;;;;-144.51;100.00;69251.94;5096000;28;20485;-80
2024/03/28 00:24:22;;;;;;;2.25;1.48;;;;;;;-144.51;100.00;69251.94;5085289;28;20036;-81
2024/03/28 00:27:15;;;;;;;2.33;1.45;;;;;;;-144.51;100.00;69251.94;5094601;28;20032;-80
2024/03/28 00:30:07;;;;;;;2.85;1.38;;;;;;;-144.51;100.00;69251.94;5092029;28;20032;-81
2024/03/28 00:33:02;;;;;;;1.55;1.17;;;;;;;-144.51;100.00;69251.94;5098762;28;20044;-81
2024/03/28 00:35:54;;;;;;;5.97;2.10;;;;;;;-144.51;100.00;69251.94;5097221;28;20493;-81
2024/03/28 00:38:48;;;;;;;3.05;1.70;;;;;;;-144.51;100.00;69251.94;5099805;28;20043;-81
2024/03/28 00:41:43;;;;;;;6.17;2.63;;;;;;;-144.51;100.00;69251.94;5100179;28;20036;-81
2024/03/28 00:44:37;;;;;;;5.40;1.70;;;;;;;-144.51;100.00;69251.94;5095059;28;20039;-81
2024/03/28 00:47:27;;;;;;;1.73;1.33;;;;;;;-144.51;100.00;69251.94;5100003;28;20048;-80
2024/03/28 00:50:21;;;;;;;1.88;1.38;;;;;;;-144.51;100.00;69251.94;5099441;28;20500;-79
2024/03/28 00:53:16;;;;;;;3.30;1.15;;;;;;;-144.51;100.00;69251.94;5092566;28;20041;-81
2024/03/28 00:56:11;;;;;;;2.92;1.40;;;;;;;-144.51;100.00;69251.94;5095982;28;20040;-79
2024/03/28 00:59:05;;;;;;;5.35;1.95;;;;;;;-144.51;100.00;69251.94;5092870;28;20044;-80
2024/03/28 01:02:05;;;;;;;2.07;1.37;;;;;;;-144.51;100.00;69251.94;5092417;28;20043;-79
2024/03/28 01:05:00;;;;;;;2.35;1.58;;;;;;;-144.51;100.00;69251.94;5099236;28;20036;-79
2024/03/28 01:07:52;;;;;;;1.75;1.42;;;;;;;-144.51;100.00;69251.94;5093996;28;20044;-79
2024/03/28 01:10:46;;;;;;;2.40;1.60;;;;;;;-144.51;100.00;69251.94;5097149;28;20040;-81
2024/03/28 01:13:41;;;;;;;3.23;1.63;;;;;;;-144.51;100.00;69251.94;5094640;28;20036;-80
2024/03/28 01:16:30;;;;;;;3.60;1.83;;;;;;;-144.51;100.00;69251.94;5100460;28;20040;-80
2024/03/28 01:19:22;;;;;;;2.45;1.50;;;;;;;-144.51;100.00;69251.94;5077673;28;20413;-81
2024/03/28 01:22:16;;;;;;;2.20;1.50;;;;;;;-144.51;100.00;69251.94;5090466;28;20412;-81
2024/03/28 01:25:13;;;;;;;2.53;1.30;;;;;;;-144.51;100.00;69251.94;5098192;28;20036;-80
2024/03/28 01:28:07;;;;;;;2.35;1.73;;;;;;;-144.51;100.00;69251.94;5095248;28;20043;-80
2024/03/28 01:31:07;;;;;;;3.22;1.80;;;;;;;-144.51;100.00;69251.94;5098094;28;20036;-80
2024/03/28 01:34:01;;;;;;;3.03;1.65;;;;;;;-144.51;100.00;69251.94;5099154;28;20408;-81
2024/03/28 01:36:53;;;;;;;1.38;1.23;;;;;;;-144.51;100.00;69251.94;5093159;28;20044;-81
2024/03/28 01:39:48;;;;;;;3.00;1.90;;;;;;;-144.51;100.00;69251.94;5099945;28;20047;-79
2024/03/28 01:42:38;;;;;;;7.22;2.90;;;;;;;-144.51;100.00;69251.94;5086445;28;20500;-81
2024/03/28 01:45:30;;;;;;;1.98;1.60;;;;;;;-144.51;100.00;69251.94;5096018;28;20039;-81
2024/03/28 01:48:23;;;;;;;2.78;2.00;;;;;;;-144.51;100.00;69251.94;5099982;28;20036;-81
2024/03/28 01:51:18;;;;;;;2.47;1.70;;;;;;;-144.51;100.00;69251.94;5099522;28;20048;-83
2024/03/28 01:54:13;;;;;;;3.73;1.63;;;;;;;-144.51;100.00;69251.94;5082334;28;20036;-80
2024/03/28 01:57:06;;;;;;;1.42;1.33;;;;;;;-144.51;100.00;69251.94;5075982;28;20514;-80
2024/03/28 01:59:59;;;;;;;2.38;1.77;;;;;;;-144.51;100.00;69251.94;5084191;28;20036;-81
2024/03/28 02:02:51;;;;;;;2.53;2.00;;;;;;;-144.51;100.00;69251.94;5099163;28;20039;-80
2024/03/28 02:05:46;;;;;;;3.17;1.48;;;;;;;-144.51;100.00;69251.94;5079589;28;20040;-80
2024/03/28 02:08:38;;;;;;;1.48;1.13;;;;;;;-144.51;100.00;69251.94;5081247;28;20040;-79
2024/03/28 02:11:33;;;;;;;1.63;1.52;;;;;;;-144.51;100.00;69251.94;5078930;28;20696;-80
2024/03/28 02:14:28;;;;;;;3.17;1.77;;;;;;;-144.51;100.00;69251.94;5096532;28;20048;-80
2024/03/28 02:17:23;;;;;;;4.37;1.63;;;;;;;-144.51;100.00;69251.94;5075493;28;20060;-81
2024/03/28 02:20:17;;;;;;;2.47;2.27;;;;;;;-144.51;100.00;69251.94;5085986;28;20040;-81
2024/03/28 02:23:12;;;;;;;1.58;1.48;;;;;;;-144.51;100.00;69251.94;5087623;28;20044;-82
2024/03/28 02:26:04;;;;;;;3.60;2.40;;;;;;;-144.51;100.00;69251.94;5083501;28;20496;-82
2024/03/28 02:28:58;;;;;;;2.03;1.80;;;;;;;-144.51;100.00;69251.94;5101617;28;20048;-81
2024/03/28 02:31:51;;;;;;;2.00;1.63;;;;;;;-144.51;100.00;69251.94;5099911;28;20066;-81
2024/03/28 02:34:53;;;;;;;5.45;2.00;;;;;;;-144.51;100.00;69251.94;5103656;28;20056;-80
2024/03/28 02:37:47;;;;;;;3.17;2.00;;;;;;;-144.51;100.00;69251.94;5103186;28;20032;-80
2024/03/28 02:40:39;;;;;;;4.03;1.70;;;;;;;-144.51;100.00;69251.94;5100023;28;20044;-80
2024/03/28 02:43:34;;;;;;;2.75;1.92;;;;;;;-144.51;100.00;69251.94;5083052;28;20413;-80
2024/03/28 02:46:26;;;;;;;3.17;1.63;;;;;;;-144.51;100.00;69251.94;5093181;28;20043;-79
2024/03/28 02:49:21;;;;;;;6.13;1.45;;;;;;;-144.51;100.00;69251.94;5078876;28;20044;-80
2024/03/28 02:52:13;;;;;;;2.40;1.90;;;;;;;-144.51;100.00;69251.94;5088894;28;20048;-80
2024/03/28 02:55:08;;;;;;;3.15;1.65;;;;;;;-144.51;100.00;69251.94;5100518;28;20501;-80
2024/03/28 02:58:00;;;;;;;3.08;2.20;;;;;;;-144.51;100.00;69251.94;5097488;28;20044;-81
2024/03/28 03:00:54;;;;;;;4.95;2.45;;;;;;;-144.51;100.00;69251.94;5102135;28;20497;-80
2024/03/28 03:03:49;;;;;;;4.23;1.87;;;;;;;-144.51;100.00;69251.94;5102209;28;20044;-79
2024/03/28 03:06:43;;;;;;;6.50;2.67;;;;;;;-144.51;100.00;69251.94;5097064;28;20262;-81
2024/03/28 03:09:41;;;;;;;5.75;2.20;;;;;;;-144.51;100.00;69251.94;5081678;28;20040;-80
2024/03/28 03:12:36;;;;;;;12.67;2.50;;;;;;;-144.51;100.00;69251.94;5077010;28;20040;-81
2024/03/28 03:15:25;;;;;;;4.50;3.07;;;;;;;-144.51;100.00;69251.94;5079612;28;20040;-81
2024/03/28 03:18:17;;;;;;;7.70;2.70;;;;;;;-144.51;100.00;69251.94;5081182;28;20283;-82
2024/03/28 03:21:12;;;;;;;8.02;2.72;;;;;;;-144.51;100.00;69251.94;5084948;28;20040;-81
2024/03/28 03:24:04;;;;;;;5.57;2.78;;;;;;;-144.51;100.00;69251.94;5098048;28;20033;-79
2024/03/28 03:27:01;;;;;;;4.53;2.20;;;;;;;-144.51;100.00;69251.94;5077374;28;20048;-79
2024/03/28 03:36:18;;;;;;;3.65;2.65;;;;;;;-144.51;100.00;69251.94;5076724;28;20053;-80
2024/03/28 03:39:13;;;;;;;2.80;2.47;;;;;;;-144.51;100.00;69251.94;5080785;28;20044;-80
2024/03/28 03:42:07;;;;;;;4.82;2.22;;;;;;;-144.51;100.00;69251.94;5085859;28;20044;-80
2024/03/28 03:45:02;;;;;;;4.73;2.63;;;;;;;-144.51;100.00;69251.94;5098282;28;20028;-79
2024/03/28 03:48:01;;;;;;;3.20;2.42;;;;;;;-144.51;100.00;69251.94;5100563;28;20623;-79
2024/03/28 03:50:56;;;;;;;3.83;2.70;;;;;;;-144.51;100.00;69251.94;5098114;28;20412;-80
2024/03/28 03:53:48;;;;;;;4.80;2.40;;;;;;;-144.51;100.00;69251.94;5100074;28;20052;-80
2024/03/28 03:56:43;;;;;;;3.83;2.75;;;;;;;-144.51;100.00;69251.94;5095309;28;20036;-80
2024/03/28 03:59:35;;;;;;;8.60;2.72;;;;;;;-144.51;100.00;69251.94;5100140;28;20032;-81
2024/03/28 04:02:29;;;;;;;4.77;3.37;;;;;;;-144.51;100.00;69251.94;5074457;28;20044;-81
2024/03/28 04:05:24;;;;;;;12.13;3.50;;;;;;;-144.51;100.00;69251.94;5072383;28;20041;-80
2024/03/28 04:08:19;;;;;;;3.72;2.67;;;;;;;-144.51;100.00;69251.94;5093070;28;20040;-80
2024/03/28 04:11:11;;;;;;;3.88;2.40;;;;;;;-144.51;100.00;69251.94;5079294;28;20045;-80
2024/03/28 04:14:09;;;;;;;3.05;2.28;;;;;;;-144.51;100.00;69251.94;5079476;28;20040;-80
2024/03/28 04:17:02;;;;;;;4.25;2.33;;;;;;;-144.51;100.00;69251.94;5069977;28;20036;-79
2024/03/28 04:20:00;;;;;;;4.35;2.47;;;;;;;-144.51;100.00;69251.94;5097649;28;20044;-80
2024/03/28 04:22:54;;;;;;;5.80;3.13;;;;;;;-144.51;100.00;69251.94;5095911;28;20039;-80
2024/03/28 04:25:46;;;;;;;2.97;2.40;;;;;;;-144.51;100.00;69251.94;5097130;28;20520;-80
2024/03/28 04:28:38;;;;;;;6.55;3.35;;;;;;;-144.51;100.00;69251.94;5099307;28;20273;-80
2024/03/28 04:31:33;;;;;;;5.18;3.35;;;;;;;-144.51;100.00;69251.94;5099015;28;20048;-79
2024/03/28 04:34:27;;;;;;;7.40;2.75;;;;;;;-144.51;100.00;69251.94;5099368;28;20032;-80
2024/03/28 04:37:22;;;;;;;8.07;2.80;;;;;;;-144.51;100.00;69251.94;5077358;28;20048;-79
2024/03/28 04:40:17;;;;;;;4.30;1.92;;;;;;;-144.51;100.00;69251.94;5091333;28;20048;-80
2024/03/28 04:43:11;;;;;;;6.15;2.20;;;;;;;-144.51;100.00;69251.94;5090867;28;20405;-80
2024/03/28 04:46:08;;;;;;;5.73;2.30;;;;;;;-144.51;100.00;69251.94;5095652;28;20032;-80
2024/03/28 04:49:01;;;;;;;2.33;1.77;;;;;;;-144.51;100.00;69251.94;5093097;28;20032;-79
2024/03/28 04:51:55;;;;;;;3.63;2.40;;;;;;;-144.51;100.00;69251.94;5093768;28;20278;-80
2024/03/28 04:54:50;;;;;;;7.22;2.05;;;;;;;-144.51;100.00;69251.94;5099101;28;20421;-79
2024/03/28 04:57:44;;;;;;;3.67;1.67;;;;;;;-144.51;100.00;69251.94;5097586;28;20040;-79
2024/03/28 05:00:39;;;;;;;2.97;2.20;;;;;;;-144.51;100.00;69251.94;5079787;28;20048;-81
2024/03/28 05:03:33;;;;;;;4.55;2.50;;;;;;;-144.51;100.00;69251.94;5091303;28;20044;-82
2024/03/28 05:06:28;;;;;;;5.10;2.13;;;;;;;-144.51;100.00;69251.94;5097811;28;20425;-82
2024/03/28 05:09:20;;;;;;;8.35;3.65;;;;;;;-144.51;100.00;69251.94;5101870;28;20417;-81
2024/03/28 05:12:14;;;;;;;7.65;5.97;;;;;;;-144.51;100.00;69251.94;5092356;28;20032;-80
2024/03/28 05:15:09;;;;;;;3.60;2.53;;;;;;;-144.51;100.00;69251.94;5100997;28;20425;-79
2024/03/28 05:18:04;;;;;;;3.85;3.05;;;;;;;-144.51;100.00;69251.94;5105046;28;20409;-80
2024/03/28 05:20:56;;;;;;;12.37;7.67;;;;;;;-144.51;100.00;69251.94;5102417;28;20055;-79
2024/03/28 05:23:51;;;;;;;9.02;5.50;;;;;;;-144.51;100.00;69251.94;5093042;28;20032;-80
2024/03/28 05:26:46;;;;;;;5.72;3.60;;;;;;;-144.51;100.00;69251.94;5116308;28;20031;-80
2024/03/28 05:29:40;;;;;;;4.75;3.00;;;;;;;-144.51;100.00;69251.94;5080561;28;20044;-81
2024/03/28 05:32:35;;;;;;;4.90;3.70;;;;;;;-144.51;100.00;69251.94;5102264;28;20056;-79
2024/03/28 05:35:27;;;;;;;6.67;3.40;;;;;;;-144.51;100.00;69251.94;5118412;28;20289;-80
2024/03/28 05:38:22;;;;;;;3.90;2.90;;;;;;;-144.51;100.00;69251.94;5099859;28;20286;-79
2024/03/28 05:41:14;;;;;;;6.20;3.03;;;;;;;-144.51;100.00;69251.94;5102823;28;20036;-79
2024/03/28 05:44:09;;;;;;;6.07;2.85;;;;;;;-144.51;100.00;69251.94;5099871;28;20281;-81
2024/03/28 05:47:01;;;;;;;3.27;2.30;;;;;;;-144.51;100.00;69251.94;5105477;28;20032;-80
2024/03/28 05:49:55;;;;;;;4.07;2.95;;;;;;;-144.51;100.00;69251.94;5107851;28;20040;-81
2024/03/28 05:52:45;;;;;;;5.45;3.00;;;;;;;-144.51;100.00;69251.94;5100820;28;20044;-81
2024/03/28 05:55:36;;;;;;;3.70;2.50;;;;;;;-144.51;100.00;69251.94;5101614;28;20044;-80
2024/03/28 05:58:28;;;;;;;4.30;2.38;;;;;;;-144.51;100.00;69251.94;5105727;28;20048;-79
2024/03/28 06:01:23;;;;;;;5.65;3.58;;;;;;;-144.51;100.00;69251.94;5102487;28;20032;-80
2024/03/28 06:04:17;;;;;;;8.18;3.20;;;;;;;-144.51;100.00;69251.94;5104795;28;20040;-80
2024/03/28 06:07:12;;;;;;;12.45;2.83;;;;;;;-144.51;100.00;69251.94;5096473;28;20036;-79
2024/03/28 06:10:06;;;;;;;5.57;2.95;;;;;;;-144.51;100.00;69251.94;5110338;28;20421;-81
2024/03/28 06:12:54;;;;;;;3.90;2.22;;;;;;;-144.51;100.00;69251.94;5093548;28;20040;-82
2024/03/28 06:15:49;;;;;;;7.28;2.05;;;;;;;-144.51;100.00;69251.94;5085940;28;20051;-81
2024/03/28 06:18:44;;;;;;;6.73;2.60;;;;;;;-144.51;100.00;69251.94;5110361;28;20043;-80
2024/03/28 06:21:39;;;;;;;6.40;2.00;;;;;;;-144.51;100.00;69251.94;5102190;28;20266;-83
2024/03/28 06:24:33;;;;;;;6.55;1.85;;;;;;;-144.51;100.00;69251.94;5089890;28;20263;-81
2024/03/28 06:27:28;;;;;;;6.30;1.38;;;;;;;-144.51;100.00;69251.94;5102348;28;20044;-88
2024/03/28 06:30:25;;;;;;;3.65;1.52;;;;;;;-144.51;100.00;69251.94;5102734;28;20044;-86
2024/03/28 06:33:20;;;;;;;10.95;3.78;;;;;;;-144.51;100.00;69251.94;5103489;28;20040;-88
2024/03/28 06:36:15;;;;;;;8.57;5.43;;;;;;;-144.51;100.00;69251.94;5101824;28;20035;-88
2024/03/28 06:39:08;;;;;;;10.82;3.45;;;;;;;-144.51;100.00;69251.94;5104105;28;20031;-85
2024/03/28 06:42:00;;;;;;;14.30;3.38;;;;;;;-144.51;100.00;69251.94;5103610;28;20048;-85
2024/03/28 06:44:54;;;;;;;9.75;3.45;;;;;;;-144.51;100.00;69251.94;5097442;28;20493;-81
2024/03/28 06:47:49;;;;;;;6.57;3.03;;;;;;;-144.51;100.00;69251.94;5102795;28;20040;-85
2024/03/28 06:50:44;;;;;;;6.90;3.20;;;;;;;-144.51;100.00;69251.94;5100121;28;20413;-83
2024/03/28 06:53:38;;;;;;;10.82;3.13;;;;;;;-144.51;100.00;69251.94;5091657;28;20564;-82
2024/03/28 06:56:33;;;;;;;4.20;2.27;;;;;;;-144.51;100.00;69251.94;5075719;28;20036;-82
2024/03/28 06:59:23;;;;;;;5.80;3.03;;;;;;;-144.51;100.00;69251.94;5090716;28;20274;-81
2024/03/28 07:02:17;;;;;;;8.63;4.90;;;;;;;-144.51;100.00;69251.94;5097303;28;20040;-81
2024/03/28 07:05:12;;;;;;;7.03;3.80;;;;;;;-144.51;100.00;69251.94;5079788;28;20032;-82
2024/03/28 07:08:06;;;;;;;6.03;2.90;;;;;;;-144.51;100.00;69251.94;5103603;28;20040;-82
2024/03/28 07:10:56;;;;;;;7.03;3.17;;;;;;;-144.51;100.00;69251.94;5121863;28;20035;-82
2024/03/28 07:13:48;;;;;;;23.58;4.05;;;;;;;-144.51;100.00;69251.94;5121209;28;20488;-82
2024/03/28 07:16:42;;;;;;;14.38;2.53;;;;;;;-144.51;100.00;69251.94;5116487;28;20040;-82
2024/03/28 07:19:37;;;;;;;20.67;2.77;;;;;;;-144.51;100.00;69251.94;5119358;28;20496;-82
2024/03/28 07:22:31;;;;;;;7.97;2.05;;;;;;;-144.51;100.00;69251.94;5097452;28;20052;-81
2024/03/28 07:25:26;;;;;;;14.38;2.95;;;;;;;-144.51;100.00;69251.94;5084907;28;20405;-82
2024/03/28 07:28:21;;;;;;;15.23;2.30;;;;;;;-144.51;100.00;69251.94;5080348;28;20040;-81
2024/03/28 07:31:13;;;;;;;9.23;2.38;;;;;;;-144.51;100.00;69251.94;5091874;28;20040;-82
2024/03/28 07:34:08;;;;;;;8.63;2.88;;;;;;;-144.51;100.00;69251.94;5100461;28;20040;-82
2024/03/28 07:37:02;;;;;;;5.65;1.95;;;;;;;-144.51;100.00;69251.94;5094630;28;20409;-81
2024/03/28 07:39:57;;;;;;;6.95;2.15;;;;;;;-144.51;100.00;69251.94;5099826;28;20489;-83
2024/03/28 07:42:53;;;;;;;6.93;1.75;;;;;;;-144.51;100.00;69251.94;5105367;28;20039;-83
2024/03/28 07:45:47;;;;;;;7.82;2.03;;;;;;;-144.51;100.00;69251.94;5090073;28;20044;-84
2024/03/28 07:48:45;;;;;;;6.00;2.37;;;;;;;-144.51;100.00;69251.94;5098245;28;20044;-82
2024/03/28 07:51:42;;;;;;;3.40;1.92;;;;;;;-144.51;100.00;69251.94;5100430;28;20047;-83
2024/03/28 07:54:37;;;;;;;6.03;2.10;;;;;;;-144.51;100.00;69251.94;5103577;28;20055;-84
2024/03/28 07:57:29;;;;;;;7.80;2.20;;;;;;;-144.51;100.00;69251.94;5091896;28;20504;-84
2024/03/28 08:00:24;;;;;;;6.40;1.83;;;;;;;-144.51;100.00;69251.94;5085916;28;20040;-83
2024/03/28 08:03:18;;;;;;;11.70;1.90;;;;;;;-144.51;100.00;69251.94;5098017;28;20035;-83
2024/03/28 08:06:13;;;;;;;7.20;1.92;;;;;;;-144.51;100.00;69251.94;5099813;28;20270;-82
2024/03/28 08:09:07;;;;;;;8.57;1.93;;;;;;;-144.51;100.00;69251.94;5092994;28;20044;-81
2024/03/28 08:12:07;;;;;;;7.43;2.07;;;;;;;-144.51;100.00;69251.94;5097461;28;20062;-82
2024/03/28 08:15:02;;;;;;;7.57;1.90;;;;;;;-144.51;100.00;69251.94;5094739;28;20319;-82
2024/03/28 08:17:57;;;;;;;11.07;1.70;;;;;;;-144.51;100.00;69251.94;5098452;28;20043;-83
2024/03/28 08:20:50;;;;;;;2.85;1.75;;;;;;;-144.51;100.00;69251.94;5096172;28;20409;-82
2024/03/28 08:23:42;;;;;;;2.38;1.30;;;;;;;-144.51;100.00;69251.94;5099074;28;20048;-84
2024/03/28 08:26:37;;;;;;;5.60;2.13;;;;;;;-144.51;100.00;69251.94;5096038;28;20032;-80
2024/03/28 08:29:32;;;;;;;3.67;1.33;;;;;;;-144.51;100.00;69251.94;5094586;28;20059;-84
2024/03/28 08:32:26;;;;;;;6.57;1.77;;;;;;;-144.51;100.00;69251.94;5097838;28;20036;-84
2024/03/28 08:35:21;;;;;;;6.30;1.58;;;;;;;-144.51;100.00;69251.94;5094966;28;20040;-81
2024/03/28 08:38:16;;;;;;;4.95;1.35;;;;;;;-144.51;100.00;69251.94;5098337;28;20032;-82
2024/03/28 08:41:10;;;;;;;7.80;2.50;;;;;;;-144.51;100.00;69251.94;5093248;28;20049;-81
2024/03/28 08:44:05;;;;;;;7.68;2.85;;;;;;;-144.51;100.00;69251.94;5092352;28;20040;-81
2024/03/28 08:47:05;;;;;;;4.38;1.88;;;;;;;-144.51;100.00;69251.94;5093248;28;20036;-84
2024/03/28 08:49:59;;;;;;;2.45;1.13;;;;;;;-144.51;100.00;69251.94;5093352;28;20036;-81
2024/03/28 08:52:54;;;;;;;5.75;1.60;;;;;;;-144.51;100.00;69251.94;5098119;28;20073;-82
2024/03/28 08:55:46;;;;;;;5.07;1.10;;;;;;;-144.51;100.00;69251.94;5095579;28;20413;-81
2024/03/28 08:58:40;;;;;;;5.03;1.20;;;;;;;-144.51;100.00;69251.94;5092863;28;20128;-82
2024/03/28 09:01:34;;;;;;;2.40;0.95;;;;;;;-144.51;100.00;69251.94;5096063;28;20702;-81
2024/03/28 09:04:29;;;;;;;6.43;0.77;;;;;;;-144.51;100.00;69251.94;5087772;28;20064;-81
2024/03/28 09:07:23;;;;;;;3.93;0.87;;;;;;;-144.51;100.00;69251.94;5084119;28;20040;-81
2024/03/28 09:10:18;;;;;;;2.73;0.60;;;;;;;-144.51;100.00;69251.94;5094841;28;20273;-82
2024/03/28 09:13:13;;;;;;;1.30;0.63;;;;;;;-144.51;100.00;69251.94;5092431;28;20036;-81
2024/03/28 09:16:05;;;;;;;4.15;1.05;;;;;;;-144.51;100.00;69251.94;5079747;28;20040;-84
2024/03/28 09:18:59;;;;;;;3.45;1.50;;;;;;;-144.51;100.00;69251.94;5098927;28;20505;-80
2024/03/28 09:21:55;;;;;;;3.55;0.55;;;;;;;-144.51;100.00;69251.94;5090792;28;20052;-80
2024/03/28 09:24:49;;;;;;;2.27;0.63;;;;;;;-144.51;100.00;69251.94;5094546;28;20048;-80
2024/03/28 09:27:43;;;;;;;9.63;0.80;;;;;;;-144.51;100.00;69251.94;5092251;28;20035;-81
2024/03/28 09:30:36;;;;;;;2.25;0.52;;;;;;;-144.51;100.00;69251.94;5096039;28;20044;-82
2024/03/28 09:33:28;;;;;;;1.80;0.70;;;;;;;-144.51;100.00;69251.94;5094766;28;20044;-80
2024/03/28 09:36:23;;;;;;;5.32;0.70;;;;;;;-144.51;100.00;69251.94;5083134;28;20703;-81
2024/03/28 09:39:18;;;;;;;2.50;0.80;;;;;;;-144.51;100.00;69251.94;5090711;28;20485;-80
2024/03/28 09:42:13;;;;;;;3.17;0.80;;;;;;;-144.51;100.00;69251.94;5085008;28;20032;-82
2024/03/28 09:45:09;;;;;;;5.23;0.70;;;;;;;-144.51;100.00;69251.94;5089676;28;20040;-81
2024/03/28 09:48:09;;;;;;;4.18;0.63;;;;;;;-144.51;100.00;69251.94;5098350;28;20039;-80
2024/03/28 09:51:04;;;;;;;4.10;0.75;;;;;;;-144.51;100.00;69251.94;5083556;28;20037;-82
2024/03/28 09:53:56;;;;;;;4.87;1.30;;;;;;;-144.51;100.00;69251.94;5077921;28;20405;-83
2024/03/28 09:56:49;;;;;;;2.15;0.65;;;;;;;-144.51;100.00;69251.94;5098480;28;20513;-80
2024/03/28 09:59:44;;;;;;;4.40;0.73;;;;;;;-144.51;100.00;69251.94;5101244;28;20040;-80
2024/03/28 10:02:42;;;;;;;4.00;0.80;;;;;;;-144.51;100.00;69251.94;5099896;28;20035;-80
2024/03/28 10:05:32;;;;;;;1.38;0.80;;;;;;;-144.51;100.00;69251.94;5094054;28;20033;-80
2024/03/28 10:08:28;;;;;;;3.50;1.15;;;;;;;-144.51;100.00;69251.94;5099191;28;20036;-81
2024/03/28 10:11:18;;;;;;;4.03;0.75;;;;;;;-144.51;100.00;69251.94;5099369;28;20040;-81
2024/03/28 10:14:16;;;;;;;5.28;1.17;;;;;;;-144.51;100.00;69251.94;5093566;28;20044;-80
2024/03/28 10:17:10;;;;;;;4.63;1.38;;;;;;;-144.51;100.00;69251.94;5091861;28;20044;-81
2024/03/28 10:20:09;;;;;;;2.65;0.77;;;;;;;-144.51;100.00;69251.94;5083188;28;20048;-80
2024/03/28 10:23:09;;;;;;;9.73;1.58;;;;;;;-144.51;100.00;69251.94;5080855;28;20032;-80
2024/03/28 10:26:04;;;;;;;5.90;1.58;;;;;;;-144.51;100.00;69251.94;5089846;28;20052;-83
2024/03/28 10:28:54;;;;;;;3.83;1.17;;;;;;;-144.51;100.00;69251.94;5101435;28;20412;-83
2024/03/28 10:31:49;;;;;;;2.50;1.15;;;;;;;-144.51;100.00;69251.94;5087907;28;20052;-83
2024/03/28 10:34:47;;;;;;;4.82;1.40;;;;;;;-144.51;100.00;69251.94;5089257;28;20036;-84
2024/03/28 10:37:41;;;;;;;3.00;1.05;;;;;;;-144.51;100.00;69251.94;5082974;28;20037;-83
2024/03/28 10:40:40;;;;;;;8.33;1.03;;;;;;;-144.51;100.00;69251.94;5092231;28;20048;-82
2024/03/28 10:43:39;;;;;;;4.53;1.10;;;;;;;-144.51;100.00;69251.94;5101449;28;20408;-83
2024/03/28 10:46:33;;;;;;;2.78;1.42;;;;;;;-144.51;100.00;69251.94;5087123;28;20421;-81
2024/03/28 10:49:34;;;;;;;4.65;0.90;;;;;;;-144.51;100.00;69251.94;5094722;28;20036;-83
2024/03/28 10:52:34;;;;;;;1.42;0.88;;;;;;;-144.51;100.00;69251.94;5096494;28;20040;-85
2024/03/28 10:55:45;;;;;;;1.38;0.82;;;;;;;-144.51;100.00;69251.94;5096070;28;20496;-83
2024/03/28 10:58:43;;;;;;;1.95;0.90;;;;;;;-144.51;100.00;69251.94;5093666;28;20389;-83
2024/03/28 11:01:38;;;;;;;4.88;0.93;;;;;;;-144.51;100.00;69251.94;5095486;28;20044;-83
2024/03/28 11:04:34;;;;;;;1.83;0.50;;;;;;;-144.51;100.00;69251.94;5099190;28;20044;-82
2024/03/28 11:07:30;;;;;;;2.10;1.10;;;;;;;-144.51;100.00;69251.94;5091938;28;20037;-81
2024/03/28 11:10:18;;;;;;;2.40;0.95;;;;;;;-144.51;100.00;69251.94;5092298;28;20043;-81
2024/03/28 11:13:10;;;;;;;3.47;0.93;;;;;;;-144.51;100.00;69251.94;5095267;28;20052;-82
2024/03/28 11:16:04;;;;;;;3.15;0.50;;;;;;;-144.51;100.00;69251.94;5092330;28;20040;-82
2024/03/28 11:19:07;;;;;;;2.38;0.50;;;;;;;-144.51;100.00;69251.94;5098755;28;20044;-82
2024/03/28 11:22:01;;;;;;;3.10;0.70;;;;;;;-144.51;100.00;69251.94;5095643;28;20048;-82
2024/03/28 11:24:56;;;;;;;1.25;0.50;;;;;;;-144.51;100.00;69251.94;5093685;28;20040;-84
2024/03/28 11:27:51;;;;;;;2.45;0.65;;;;;;;-144.51;100.00;69251.94;5097385;28;20032;-81
2024/03/28 11:30:56;;;;;;;0.63;0.30;;;;;;;-144.51;100.00;69251.94;5094174;28;20044;-81
2024/03/28 11:33:49;;;;;;;;;;;;;;;-144.51;100.00;69251.94;5098150;28;20274;-82
2024/03/28 11:36:43;;;;;;;2.65;0.77;;;;;;;-144.51;100.00;69251.94;5090125;28;19920;-81
2024/03/28 11:39:38;;;;;;;0.70;0.30;;;;;;;-144.51;100.00;69251.94;5098762;28;20040;-83
2024/03/28 11:42:32;;;;;;;2.05;1.20;;;;;;;-144.51;100.00;69251.94;5096217;28;20655;-83
2024/03/28 11:45:24;;;;;;;2.63;0.80;;;;;;;-144.51;100.00;69251.94;5093999;28;20441;-83
2024/03/28 11:48:19;;;;;;;1.58;0.68;;;;;;;-144.51;100.00;69251.94;5097341;28;20413;-81
2024/03/28 11:51:16;;;;;;;0.65;0.40;;;;;;;-144.51;100.00;69251.94;5091433;28;20405;-82
2024/03/28 11:54:08;;;;;;;1.92;0.40;;;;;;;-144.51;100.00;69251.94;5096677;28;20521;-83
2024/03/28 11:56:58;;;;;;;1.20;0.63;;;;;;;-144.51;100.00;69251.94;5093397;28;20044;-82
2024/03/28 11:59:50;;;;;;;1.40;0.50;;;;;;;-144.51;100.00;69251.94;5093436;28;20497;-82
2024/03/28 12:02:44;;;;;;;1.65;0.38;;;;;;;-144.51;100.00;69251.94;5092306;28;20040;-81
2024/03/28 12:05:40;;;;;;;0.93;0.40;;;;;;;-144.51;100.00;69251.94;5094222;28;20044;-82
2024/03/28 12:08:35;;;;;;;0.43;0.32;;;;;;;-144.51;100.00;69251.94;5085904;28;20039;-81
2024/03/28 12:11:24;;;;;;;0.32;0.30;;;;;;;-144.51;100.00;69251.94;5088885;28;20043;-81
2024/03/28 12:14:23;;;;;;;2.33;0.45;;;;;;;-144.51;100.00;69251.94;5093213;28;20036;-82
2024/03/28 12:17:20;;;;;;;4.03;0.80;;;;;;;-144.51;100.00;69251.94;5084171;28;20040;-79
2024/03/28 12:20:20;;;;;;;3.85;0.57;;;;;;;-144.51;100.00;69251.94;5091773;28;20036;-81
2024/03/28 12:23:14;;;;;;;0.88;0.40;;;;;;;-144.51;100.00;69251.94;5097109;28;20044;-83
2024/03/28 12:26:06;;;;;;;1.90;0.63;;;;;;;-144.51;100.00;69251.94;5078082;28;20410;-84
2024/03/28 12:29:01;;;;;;;0.43;0.30;;;;;;;-144.51;100.00;69251.94;5092974;28;20408;-83
2024/03/28 12:32:03;;;;;;;0.20;0.10;;;;;;;-144.51;100.00;69251.94;5085013;28;20048;-82
2024/03/28 12:34:58;;;;;;;1.40;0.35;;;;;;;-144.51;100.00;69251.94;5088384;28;20040;-83
2024/03/28 12:37:50;;;;;;;3.10;0.68;;;;;;;-144.51;100.00;69251.94;5089857;28;20032;-82
2024/03/28 12:40:51;;;;;;;4.25;0.65;;;;;;;-144.51;100.00;69251.94;5094087;28;20036;-81
2024/03/28 12:43:55;;;;;;;1.48;0.60;;;;;;;-144.51;100.00;69251.94;5085501;28;20579;-80
2024/03/28 12:46:49;;;;;;;2.75;0.80;;;;;;;-144.51;100.00;69251.94;5089869;28;20496;-80
2024/03/28 12:49:44;;;;;;;1.27;0.82;;;;;;;-144.51;100.00;69251.94;5099295;28;20040;-81
2024/03/28 12:52:41;;;;;;;1.42;0.50;;;;;;;-144.51;100.00;69251.94;5093461;28;20044;-82
2024/03/28 12:55:35;;;;;;;3.85;1.02;;;;;;;-144.51;100.00;69251.94;5092214;28;20052;-80
2024/03/28 12:58:29;;;;;;;2.88;1.35;;;;;;;-144.51;100.00;69251.94;5092868;28;20409;-82
2024/03/28 13:01:22;;;;;;;1.80;1.33;;;;;;;-144.51;100.00;69251.94;5099075;28;20036;-82
2024/03/28 13:04:13;;;;;;;1.02;0.50;;;;;;;-144.51;100.00;69251.94;5090842;28;20040;-82
2024/03/28 13:07:05;;;;;;;2.30;0.40;;;;;;;-144.51;100.00;69251.94;5075899;28;20032;-83
2024/03/28 13:10:00;;;;;;;1.40;0.57;;;;;;;-144.51;100.00;69251.94;5081150;28;20052;-84
2024/03/28 13:12:52;;;;;;;2.67;0.50;;;;;;;-144.51;100.00;69251.94;5085724;28;20040;-85
2024/03/28 13:15:41;;;;;;;8.85;0.80;;;;;;;-144.51;100.00;69251.94;5097805;28;20040;-84
2024/03/28 13:18:36;;;;;;;1.63;0.80;;;;;;;-144.51;100.00;69251.94;5085391;28;20044;-85